createdAt,value
2019-02-27T00:00:56.872Z,23.92
2019-02-27T00:02:22.765Z,18.40
2019-02-27T00:04:11.490Z,19.82
2019-02-27T00:05:25.431Z,22.15
2019-02-27T00:06:56.005Z,20.27
2019-02-27T00:07:47.596Z,22.77
2019-02-27T00:09:09.633Z,19.40
2019-02-27T00:10:18.048Z,18.57
2019-02-27T00:11:23.472Z,23.57
2019-02-27T00:12:29.606Z,18.67
2019-02-27T00:13:36.340Z,19.87
2019-02-27T00:14:45.448Z,16.95
2019-02-27T00:15:52.878Z,20.43
2019-02-27T00:18:23.601Z,19.37
2019-02-27T00:19:36.183Z,18.92
2019-02-27T00:20:37.029Z,21.07
2019-02-27T00:21:46.937Z,21.33
2019-02-27T00:24:16.690Z,22.00
2019-02-27T00:25:43.625Z,20.75
2019-02-27T00:28:23.447Z,24.12
2019-02-27T00:29:30.909Z,22.25
2019-02-27T00:30:42.963Z,24.80
2019-02-27T00:31:54.828Z,20.02
2019-02-27T00:33:10.195Z,18.48
2019-02-27T00:34:14.763Z,24.18
2019-02-27T00:35:28.127Z,23.32
2019-02-27T00:36:45.976Z,17.32
2019-02-27T00:37:52.667Z,24.67
2019-02-27T00:39:05.589Z,21.60
2019-02-27T00:40:24.617Z,15.93
2019-02-27T00:43:01.218Z,24.82
2019-02-27T00:44:20.512Z,24.25
2019-02-27T00:45:20.682Z,23.67
2019-02-27T00:46:30.536Z,20.97
2019-02-27T00:49:08.739Z,20.57
2019-02-27T00:50:50.543Z,16.75
2019-02-27T00:51:44.650Z,20.15
2019-02-27T00:52:59.838Z,22.22
2019-02-27T00:54:31.447Z,19.35
2019-02-27T00:55:49.138Z,21.30
2019-02-27T00:57:04.913Z,19.67
2019-02-27T00:58:15.375Z,19.35
2019-02-27T00:59:39.325Z,19.35
2019-02-27T01:00:52.336Z,18.60
2019-02-27T01:03:08.584Z,21.60
2019-02-27T01:04:18.058Z,22.77
2019-02-27T01:05:35.694Z,27.05
2019-02-27T01:08:52.871Z,22.02
2019-02-27T01:10:39.850Z,21.93
2019-02-27T01:11:53.958Z,19.73
2019-02-27T01:13:20.869Z,21.73
2019-02-27T01:15:33.253Z,20.60
2019-02-27T01:17:30.509Z,24.95
2019-02-27T01:18:52.787Z,29.87
2019-02-27T01:20:05.835Z,20.77
2019-02-27T01:21:30.613Z,21.75
2019-02-27T01:22:42.011Z,22.60
2019-02-27T01:23:49.229Z,22.73
2019-02-27T01:26:44.613Z,20.23
2019-02-27T01:29:18.103Z,21.62
2019-02-27T01:29:27.900Z,22.15
2019-02-27T01:30:27.499Z,20.37
2019-02-27T01:31:43.617Z,17.95
2019-02-27T01:34:23.629Z,20.95
2019-02-27T01:35:37.888Z,24.85
2019-02-27T01:37:12.357Z,21.35
2019-02-27T01:38:13.110Z,19.75
2019-02-27T01:39:24.519Z,25.12
2019-02-27T01:40:39.341Z,19.30
2019-02-27T01:41:55.277Z,24.95
2019-02-27T01:43:14.667Z,18.52
2019-02-27T01:44:17.441Z,21.30
2019-02-27T01:48:33.643Z,21.70
2019-02-27T01:49:54.305Z,20.32
2019-02-27T01:51:13.963Z,22.95
2019-02-27T01:52:37.743Z,24.05
2019-02-27T01:53:45.253Z,22.00
2019-02-27T01:55:06.923Z,19.77
2019-02-27T01:56:34.683Z,19.70
2019-02-27T01:57:36.804Z,18.37
2019-02-27T01:58:48.501Z,23.38
2019-02-27T01:59:56.789Z,22.30
2019-02-27T02:01:04.643Z,18.87
2019-02-27T02:02:13.623Z,21.45
2019-02-27T02:03:28.555Z,21.80
2019-02-27T02:04:53.768Z,20.95
2019-02-27T02:07:34.898Z,23.77
2019-02-27T02:08:48.828Z,19.30
2019-02-27T02:10:01.667Z,20.90
2019-02-27T02:11:43.545Z,17.65
2019-02-27T02:12:29.337Z,22.58
2019-02-27T02:13:43.245Z,25.68
2019-02-27T02:15:31.927Z,21.62
2019-02-27T02:16:44.526Z,20.62
2019-02-27T02:19:54.007Z,17.85
2019-02-27T02:21:18.962Z,16.77
2019-02-27T02:22:31.956Z,21.30
2019-02-27T02:24:03.294Z,20.45
2019-02-27T02:25:13.538Z,18.70
2019-02-27T02:27:41.442Z,21.85
2019-02-27T02:29:20.333Z,14.78
2019-02-27T02:31:05.012Z,18.37
2019-02-27T02:32:34.151Z,16.80
2019-02-27T02:34:06.315Z,17.50
2019-02-27T02:35:24.725Z,23.90
2019-02-27T02:36:49.523Z,18.60
2019-02-27T02:37:56.020Z,22.65
2019-02-27T02:39:34.592Z,23.83
2019-02-27T02:41:07.771Z,22.62
2019-02-27T02:42:32.423Z,20.20
2019-02-27T02:44:20.563Z,18.85
2019-02-27T02:47:16.878Z,21.27
2019-02-27T02:47:22.461Z,22.52
2019-02-27T02:52:41.675Z,16.60
2019-02-27T02:53:43.493Z,17.25
2019-02-27T03:02:07.088Z,17.87
2019-02-27T03:05:23.657Z,17.92
2019-02-27T03:06:47.369Z,19.95
2019-02-27T03:09:01.873Z,15.60
2019-02-27T03:10:10.830Z,22.82
2019-02-27T03:12:03.838Z,18.15
2019-02-27T03:12:57.904Z,19.23
2019-02-27T03:15:46.939Z,19.73
2019-02-27T03:17:07.813Z,15.98
2019-02-27T03:20:25.897Z,17.98
2019-02-27T03:22:11.172Z,20.17
2019-02-27T03:25:31.741Z,25.85
2019-02-27T03:25:40.136Z,19.80
2019-02-27T03:27:30.957Z,23.05
2019-02-27T03:28:45.411Z,19.82
2019-02-27T03:32:25.395Z,19.32
2019-02-27T03:35:11.351Z,18.02
2019-02-27T03:36:45.640Z,17.75
2019-02-27T03:38:13.876Z,21.12
2019-02-27T03:39:56.346Z,19.30
2019-02-27T03:41:39.770Z,19.17
2019-02-27T03:43:12.782Z,18.48
2019-02-27T03:46:26.082Z,20.40
2019-02-27T03:47:44.096Z,18.10
2019-02-27T03:49:03.694Z,21.07
2019-02-27T03:50:49.802Z,20.75
2019-02-27T03:52:15.147Z,20.52
2019-02-27T03:53:57.337Z,14.95
2019-02-27T03:55:31.808Z,21.87
2019-02-27T03:56:59.941Z,17.65
2019-02-27T03:58:31.469Z,19.60
2019-02-27T04:00:07.065Z,24.95
2019-02-27T04:02:06.086Z,16.85
2019-02-27T04:05:08.390Z,20.23
2019-02-27T04:09:12.271Z,21.27
2019-02-27T04:10:32.685Z,25.15
2019-02-27T04:11:42.580Z,21.25
2019-02-27T04:12:59.198Z,19.35
2019-02-27T04:14:14.449Z,19.67
2019-02-27T04:15:28.082Z,20.80
2019-02-27T04:16:34.773Z,20.20
2019-02-27T04:17:56.466Z,17.32
2019-02-27T04:19:09.473Z,20.50
2019-02-27T04:20:50.166Z,22.05
2019-02-27T04:21:43.283Z,23.30
2019-02-27T04:24:29.659Z,19.67
2019-02-27T04:27:01.857Z,16.30
2019-02-27T04:28:23.170Z,18.02
2019-02-27T04:32:48.036Z,16.12
2019-02-27T04:33:44.305Z,20.95
2019-02-27T04:36:34.824Z,16.67
2019-02-27T04:43:12.132Z,17.50
2019-02-27T04:44:18.996Z,20.10
2019-02-27T04:47:35.786Z,23.70
2019-02-27T04:48:09.061Z,16.95
2019-02-27T04:49:22.042Z,20.85
2019-02-27T04:50:36.863Z,21.57
2019-02-27T04:51:48.139Z,18.70
2019-02-27T04:52:57.664Z,22.02
2019-02-27T04:54:07.740Z,21.00
2019-02-27T04:55:29.521Z,20.10
2019-02-27T04:56:25.153Z,21.17
2019-02-27T05:02:03.294Z,18.90
2019-02-27T05:02:05.400Z,18.85
2019-02-27T05:03:28.631Z,20.15
2019-02-27T05:04:46.098Z,23.83
2019-02-27T05:08:33.041Z,23.18
2019-02-27T05:17:15.044Z,22.80
2019-02-27T05:17:58.861Z,18.02
2019-02-27T05:18:20.120Z,21.62
2019-02-27T05:19:40.216Z,24.18
2019-02-27T05:20:37.406Z,23.75
2019-02-27T05:22:02.777Z,20.77
2019-02-27T05:23:20.275Z,21.87
2019-02-27T05:24:31.097Z,20.50
2019-02-27T05:25:46.772Z,18.52
2019-02-27T05:26:50.259Z,22.52
2019-02-27T05:28:09.680Z,18.32
2019-02-27T05:30:53.155Z,25.17
2019-02-27T05:32:19.875Z,24.35
2019-02-27T05:33:22.659Z,25.05
2019-02-27T05:36:10.872Z,25.05
2019-02-27T05:39:20.995Z,23.67
2019-02-27T05:39:53.767Z,29.98
2019-02-27T05:41:45.523Z,24.32
2019-02-27T05:42:24.223Z,28.55
2019-02-27T05:43:34.982Z,29.02
2019-02-27T05:44:59.140Z,29.05
2019-02-27T05:45:54.225Z,27.87
2019-02-27T05:48:53.302Z,30.82
2019-02-27T05:49:52.089Z,29.25
2019-02-27T05:50:51.731Z,27.55
2019-02-27T05:52:01.560Z,26.25
2019-02-27T05:53:10.649Z,25.17
2019-02-27T05:54:24.075Z,27.37
2019-02-27T05:55:45.382Z,28.17
2019-02-27T05:56:42.450Z,24.63
2019-02-27T05:57:50.931Z,25.00
2019-02-27T05:58:57.140Z,24.30
2019-02-27T06:00:10.350Z,25.15
2019-02-27T06:01:25.456Z,30.85
2019-02-27T06:02:34.120Z,24.07
2019-02-27T06:03:49.446Z,24.07
2019-02-27T06:04:51.224Z,23.50
2019-02-27T06:06:06.697Z,23.02
2019-02-27T06:07:13.975Z,26.15
2019-02-27T06:08:34.852Z,22.00
2019-02-27T06:09:48.922Z,24.55
2019-02-27T06:11:06.489Z,22.82
2019-02-27T06:12:33.660Z,22.15
2019-02-27T06:13:44.963Z,27.37
2019-02-27T06:14:54.715Z,20.10
2019-02-27T06:16:08.921Z,21.25
2019-02-27T06:17:12.867Z,22.67
2019-02-27T06:18:23.560Z,24.47
2019-02-27T06:19:49.082Z,20.65
2019-02-27T06:20:58.292Z,22.07
2019-02-27T06:22:23.090Z,22.25
2019-02-27T06:23:27.695Z,24.12
2019-02-27T06:24:50.806Z,27.73
2019-02-27T06:25:50.320Z,24.10
2019-02-27T06:28:36.496Z,24.98
2019-02-27T06:32:28.237Z,24.50
2019-02-27T06:33:01.479Z,25.10
2019-02-27T06:34:18.639Z,24.23
2019-02-27T06:38:08.261Z,23.92
2019-02-27T06:38:12.353Z,30.85
2019-02-27T06:39:35.304Z,25.05
2019-02-27T06:40:45.339Z,25.15
2019-02-27T06:41:50.395Z,28.17
2019-02-27T06:42:57.926Z,26.97
2019-02-27T06:44:06.927Z,26.35
2019-02-27T06:45:26.445Z,22.53
2019-02-27T06:46:29.165Z,26.05
2019-02-27T06:49:07.271Z,26.75
2019-02-27T06:50:16.709Z,26.35
2019-02-27T06:51:26.348Z,25.40
2019-02-27T06:52:47.073Z,29.07
2019-02-27T06:53:59.049Z,28.70
2019-02-27T06:55:09.675Z,24.82
2019-02-27T06:56:16.306Z,28.85
2019-02-27T06:57:26.836Z,26.25
2019-02-27T06:58:34.307Z,26.55
2019-02-27T06:59:43.833Z,23.18
2019-02-27T07:01:55.821Z,26.15
2019-02-27T07:02:42.733Z,25.45
2019-02-27T07:03:03.163Z,27.07
2019-02-27T07:04:12.101Z,26.15
2019-02-27T07:05:23.761Z,24.92
2019-02-27T07:06:32.686Z,23.98
2019-02-27T07:07:38.773Z,24.67
2019-02-27T07:09:11.584Z,25.08
2019-02-27T07:12:42.359Z,23.32
2019-02-27T07:13:10.279Z,20.77
2019-02-27T07:14:20.029Z,22.40
2019-02-27T07:15:30.051Z,24.80
2019-02-27T07:16:42.966Z,28.75
2019-02-27T07:17:52.333Z,26.60
2019-02-27T07:19:13.221Z,22.02
2019-02-27T07:20:24.408Z,30.23
2019-02-27T07:21:32.858Z,25.68
2019-02-27T07:22:54.626Z,25.65
2019-02-27T07:24:01.083Z,27.75
2019-02-27T07:25:09.894Z,25.95
2019-02-27T07:26:16.551Z,24.95
2019-02-27T07:27:21.062Z,25.43
2019-02-27T07:28:30.409Z,24.65
2019-02-27T07:29:37.933Z,24.60
2019-02-27T07:30:43.273Z,28.05
2019-02-27T07:31:52.090Z,28.52
2019-02-27T07:32:57.101Z,23.47
2019-02-27T07:34:01.979Z,24.87
2019-02-27T07:35:10.573Z,27.75
2019-02-27T07:36:23.178Z,25.37
2019-02-27T07:37:33.505Z,26.90
2019-02-27T07:40:07.902Z,21.73
2019-02-27T07:41:17.573Z,22.85
2019-02-27T07:42:32.095Z,26.40
2019-02-27T07:43:42.140Z,23.25
2019-02-27T07:44:52.214Z,27.15
2019-02-27T07:46:00.635Z,24.40
2019-02-27T07:47:13.120Z,25.72
2019-02-27T07:48:30.634Z,31.10
2019-02-27T07:49:36.576Z,25.75
2019-02-27T07:51:00.966Z,24.30
2019-02-27T07:52:09.355Z,26.37
2019-02-27T07:53:25.667Z,23.90
2019-02-27T07:54:34.578Z,26.30
2019-02-27T07:55:44.023Z,27.73
2019-02-27T07:56:56.897Z,24.60
2019-02-27T07:58:06.989Z,20.90
2019-02-27T07:59:27.337Z,24.02
2019-02-27T08:00:27.879Z,25.92
2019-02-27T08:03:08.989Z,23.55
2019-02-27T08:04:19.038Z,25.77
2019-02-27T08:05:21.186Z,22.32
2019-02-27T08:06:31.336Z,20.15
2019-02-27T08:07:54.075Z,30.70
2019-02-27T08:08:57.213Z,23.62
2019-02-27T08:10:17.065Z,24.35
2019-02-27T08:11:38.867Z,23.55
2019-02-27T08:14:28.665Z,24.20
2019-02-27T08:15:37.551Z,26.33
2019-02-27T08:16:56.893Z,25.17
2019-02-27T08:17:59.506Z,26.07
2019-02-27T08:19:11.549Z,26.90
2019-02-27T08:20:23.829Z,24.50
2019-02-27T08:21:41.028Z,28.05
2019-02-27T08:22:39.455Z,23.60
2019-02-27T08:23:48.050Z,22.10
2019-02-27T08:25:10.323Z,23.50
2019-02-27T08:26:19.909Z,25.77
2019-02-27T08:27:36.044Z,23.52
2019-02-27T08:28:47.882Z,22.02
2019-02-27T08:29:52.399Z,24.57
2019-02-27T08:30:57.112Z,20.95
2019-02-27T08:32:01.925Z,21.35
2019-02-27T08:33:15.080Z,22.75
2019-02-27T08:34:34.659Z,24.02
2019-02-27T08:35:42.809Z,17.15
2019-02-27T08:36:59.203Z,26.60
2019-02-27T08:38:05.665Z,20.88
2019-02-27T08:39:43.603Z,20.43
2019-02-27T08:40:24.599Z,21.87
2019-02-27T08:41:42.044Z,25.48
2019-02-27T08:42:54.320Z,27.75
2019-02-27T08:44:02.636Z,24.65
2019-02-27T08:45:20.083Z,23.52
2019-02-27T08:46:28.087Z,21.75
2019-02-27T08:47:51.962Z,21.15
2019-02-27T08:49:05.739Z,27.02
2019-02-27T08:50:11.520Z,21.30
2019-02-27T08:51:18.252Z,21.95
2019-02-27T08:52:49.186Z,21.87
2019-02-27T08:53:52.171Z,19.12
2019-02-27T08:55:05.361Z,20.43
2019-02-27T08:56:12.958Z,21.85
2019-02-27T08:57:21.773Z,16.85
2019-02-27T08:58:39.083Z,20.60
2019-02-27T08:59:54.864Z,17.12
2019-02-27T09:02:39.641Z,28.92
2019-02-27T09:03:51.610Z,20.97
2019-02-27T09:05:04.514Z,26.57
2019-02-27T09:06:27.293Z,21.77
2019-02-27T09:07:33.926Z,19.95
2019-02-27T09:11:27.815Z,18.67
2019-02-27T09:11:32.545Z,20.35
2019-02-27T09:11:33.020Z,18.40
2019-02-27T09:12:48.822Z,19.12
2019-02-27T09:15:42.774Z,26.12
2019-02-27T09:16:44.074Z,27.73
2019-02-27T09:17:59.151Z,25.02
2019-02-27T09:20:34.652Z,25.68
2019-02-27T09:21:44.885Z,25.82
2019-02-27T09:22:56.461Z,29.52
2019-02-27T09:24:10.088Z,30.95
2019-02-27T09:28:09.210Z,24.35
2019-02-27T09:29:23.646Z,24.55
2019-02-27T09:30:35.425Z,26.55
2019-02-27T09:31:50.473Z,27.70
2019-02-27T09:32:50.518Z,23.27
2019-02-27T09:33:58.781Z,23.57
2019-02-27T09:35:06.879Z,24.37
2019-02-27T09:36:10.350Z,18.15
2019-02-27T09:37:23.189Z,22.60
2019-02-27T09:38:41.885Z,22.52
2019-02-27T09:40:05.836Z,27.75
2019-02-27T09:41:00.815Z,22.75
2019-02-27T09:42:25.199Z,35.20
2019-02-27T09:43:32.630Z,24.82
2019-02-27T09:44:46.466Z,25.43
2019-02-27T09:45:53.408Z,27.17
2019-02-27T09:47:06.145Z,25.68
2019-02-27T09:50:05.567Z,26.33
2019-02-27T09:51:50.138Z,21.93
2019-02-27T09:52:33.224Z,29.90
2019-02-27T09:53:44.808Z,21.90
2019-02-27T09:54:54.940Z,29.30
2019-02-27T09:56:08.933Z,24.70
2019-02-27T09:57:16.449Z,22.58
2019-02-27T09:58:24.107Z,26.97
2019-02-27T09:59:51.134Z,24.55
2019-02-27T10:01:07.440Z,21.87
2019-02-27T10:02:14.726Z,27.25
2019-02-27T10:03:23.935Z,23.95
2019-02-27T10:04:38.951Z,23.73
2019-02-27T10:05:43.209Z,22.13
2019-02-27T10:07:03.158Z,20.57
2019-02-27T10:08:11.798Z,21.33
2019-02-27T10:09:28.290Z,24.02
2019-02-27T10:11:07.817Z,21.93
2019-02-27T10:11:48.442Z,25.88
2019-02-27T10:14:26.543Z,20.68
2019-02-27T10:16:03.550Z,26.85
2019-02-27T10:16:42.634Z,18.90
2019-02-27T10:18:01.079Z,19.95
2019-02-27T10:18:58.383Z,19.47
2019-02-27T10:20:11.996Z,23.55
2019-02-27T10:21:16.588Z,22.32
2019-02-27T10:22:24.810Z,21.23
2019-02-27T10:23:31.145Z,23.47
2019-02-27T10:24:37.595Z,21.68
2019-02-27T10:25:46.242Z,16.80
2019-02-27T10:26:54.818Z,18.75
2019-02-27T10:28:05.754Z,17.25
2019-02-27T10:29:13.401Z,18.52
2019-02-27T10:30:22.085Z,17.98
2019-02-27T10:31:27.018Z,20.92
2019-02-27T10:32:36.699Z,16.62
2019-02-27T10:35:18.321Z,17.70
2019-02-27T10:36:25.913Z,22.42
2019-02-27T10:37:38.470Z,17.12
2019-02-27T10:38:45.549Z,19.07
2019-02-27T10:40:02.525Z,18.60
2019-02-27T10:41:10.350Z,19.05
2019-02-27T10:43:44.397Z,16.97
2019-02-27T10:44:54.340Z,18.90
2019-02-27T10:46:12.041Z,18.45
2019-02-27T10:47:19.503Z,17.92
2019-02-27T10:48:34.452Z,16.32
2019-02-27T10:49:52.196Z,19.23
2019-02-27T10:51:04.062Z,15.88
2019-02-27T10:52:12.514Z,17.10
2019-02-27T10:53:32.999Z,17.45
2019-02-27T10:54:39.914Z,16.15
2019-02-27T10:56:11.408Z,20.80
2019-02-27T10:57:21.178Z,21.95
2019-02-27T11:00:05.902Z,21.23
2019-02-27T11:02:52.672Z,27.22
2019-02-27T11:04:05.038Z,18.42
2019-02-27T11:05:18.406Z,20.57
2019-02-27T11:06:34.041Z,19.73
2019-02-27T11:09:12.768Z,22.85
2019-02-27T11:10:19.494Z,22.75
2019-02-27T11:12:04.090Z,21.62
2019-02-27T11:13:19.524Z,26.50
2019-02-27T11:15:58.021Z,27.80
2019-02-27T11:18:17.341Z,19.60
2019-02-27T11:19:20.216Z,22.65
2019-02-27T11:20:56.729Z,21.95
2019-02-27T11:21:46.946Z,18.15
2019-02-27T11:25:45.851Z,20.35
2019-02-27T11:27:12.578Z,21.33
2019-02-27T11:28:28.826Z,18.62
2019-02-27T11:29:26.880Z,17.45
2019-02-27T11:31:01.189Z,17.20
2019-02-27T11:31:57.005Z,16.00
2019-02-27T11:33:06.078Z,15.23
2019-02-27T11:34:13.660Z,16.77
2019-02-27T11:36:38.798Z,18.15
2019-02-27T11:37:16.415Z,14.85
2019-02-27T11:39:11.911Z,17.98
2019-02-27T11:40:30.434Z,16.75
2019-02-27T11:41:53.128Z,13.48
2019-02-27T11:42:50.348Z,16.17
2019-02-27T11:44:08.453Z,15.38
2019-02-27T11:46:23.718Z,18.37
2019-02-27T11:47:34.018Z,15.15
2019-02-27T11:48:57.075Z,12.85
2019-02-27T11:51:03.330Z,15.80
2019-02-27T11:51:22.832Z,18.92
2019-02-27T11:52:48.267Z,15.98
2019-02-27T11:54:01.425Z,20.92
2019-02-27T11:55:20.759Z,17.52
2019-02-27T11:56:36.026Z,19.65
2019-02-27T11:57:45.458Z,17.00
2019-02-27T11:58:59.796Z,15.00
2019-02-27T12:00:21.233Z,18.05
2019-02-27T12:04:40.244Z,17.32
2019-02-27T12:04:56.607Z,17.15
2019-02-27T12:06:15.416Z,17.95
2019-02-27T12:11:15.966Z,17.32
2019-02-27T12:11:26.504Z,18.67
2019-02-27T12:14:08.998Z,19.73
2019-02-27T12:16:48.602Z,20.00
2019-02-27T12:18:08.101Z,17.10
2019-02-27T12:22:23.278Z,15.75
2019-02-27T12:25:29.833Z,22.67
2019-02-27T12:30:43.646Z,14.15
2019-02-27T12:36:09.036Z,14.33
2019-02-27T12:37:28.117Z,19.90
2019-02-27T12:38:31.946Z,16.32
2019-02-27T12:49:59.401Z,9.98
2019-02-27T12:52:56.414Z,10.95
2019-02-27T12:58:47.543Z,16.32
2019-02-27T13:00:01.015Z,13.00
2019-02-27T13:01:11.366Z,13.70
2019-02-27T13:02:34.620Z,12.78
2019-02-27T13:03:33.592Z,11.97
2019-02-27T13:04:52.464Z,14.58
2019-02-27T13:08:36.961Z,11.85
2019-02-27T13:10:02.671Z,11.83
2019-02-27T13:11:17.160Z,13.53
2019-02-27T13:12:21.854Z,16.87
2019-02-27T13:13:36.950Z,16.00
2019-02-27T13:15:06.379Z,12.47
2019-02-27T13:22:29.144Z,11.48
2019-02-27T13:23:28.790Z,12.40
2019-02-27T13:26:06.253Z,12.58
2019-02-27T13:27:16.765Z,11.80
2019-02-27T13:28:25.340Z,10.85
2019-02-27T13:29:34.150Z,11.68
2019-02-27T13:30:43.041Z,13.95
2019-02-27T13:31:52.107Z,13.05
2019-02-27T13:33:01.248Z,13.03
2019-02-27T13:34:06.744Z,16.00
2019-02-27T13:36:20.188Z,14.63
2019-02-27T13:36:27.527Z,14.28
2019-02-27T13:38:55.166Z,12.65
2019-02-27T13:39:11.687Z,15.93
2019-02-27T13:41:42.486Z,13.75
2019-02-27T13:43:00.993Z,16.00
2019-02-27T13:44:14.115Z,17.92
2019-02-27T13:45:47.319Z,14.65
2019-02-27T13:47:39.906Z,16.67
2019-02-27T13:49:07.509Z,14.70
2019-02-27T13:51:40.304Z,19.35
2019-02-27T13:58:35.673Z,16.62
2019-02-27T14:08:02.904Z,18.32
2019-02-27T14:10:53.307Z,15.90
2019-02-27T14:13:35.141Z,14.93
2019-02-27T14:17:44.459Z,15.23
2019-02-27T14:19:05.295Z,13.88
2019-02-27T14:21:56.138Z,17.92
2019-02-27T14:24:29.313Z,15.45
2019-02-27T14:28:01.796Z,19.65
2019-02-27T14:28:29.979Z,17.92
2019-02-27T14:29:54.975Z,16.97
2019-02-27T14:31:09.989Z,15.48
2019-02-27T14:32:26.383Z,13.53
2019-02-27T14:33:47.300Z,15.03
2019-02-27T14:36:16.351Z,23.02
2019-02-27T14:37:32.652Z,19.92
2019-02-27T14:38:44.426Z,16.12
2019-02-27T14:40:10.203Z,15.98
2019-02-27T14:41:18.087Z,18.07
2019-02-27T14:50:27.479Z,21.70
2019-02-27T14:52:08.373Z,19.87
2019-02-27T14:59:08.736Z,24.63
2019-02-27T15:17:28.371Z,25.48
2019-02-27T15:18:58.484Z,26.68
2019-02-27T15:20:09.868Z,25.05
2019-02-27T15:34:16.070Z,24.43
2019-02-27T15:40:34.983Z,28.75
2019-02-27T15:41:48.080Z,24.45
2019-02-27T15:42:58.858Z,30.35
2019-02-27T15:44:09.765Z,27.93
2019-02-27T15:45:20.599Z,28.20
2019-02-27T15:46:34.567Z,27.55
2019-02-27T15:50:33.532Z,29.15
2019-02-27T15:51:48.550Z,26.55
2019-02-27T15:53:14.915Z,26.93
2019-02-27T15:54:32.631Z,31.97
2019-02-27T15:55:40.227Z,29.85
2019-02-27T15:56:53.171Z,30.72
2019-02-27T15:58:04.160Z,32.95
2019-02-27T15:59:33.583Z,31.68
2019-02-27T16:00:52.514Z,31.52
2019-02-27T16:02:02.616Z,28.10
2019-02-27T16:03:11.827Z,29.27
2019-02-27T16:04:17.576Z,31.95
2019-02-27T16:05:31.429Z,28.30
2019-02-27T16:06:44.658Z,26.27
2019-02-27T16:08:03.931Z,27.73
2019-02-27T16:09:17.973Z,29.50
2019-02-27T16:10:26.356Z,28.15
2019-02-27T16:11:33.149Z,27.95
2019-02-27T16:12:44.580Z,27.80
2019-02-27T16:14:00.329Z,26.70
2019-02-27T16:15:19.477Z,28.87
2019-02-27T16:17:52.613Z,26.02
2019-02-27T16:19:08.061Z,29.67
2019-02-27T16:29:19.962Z,26.77
2019-02-27T16:30:34.322Z,30.65
2019-02-27T16:31:41.268Z,28.55
2019-02-27T16:37:32.391Z,28.62
2019-02-27T16:40:17.626Z,30.92
2019-02-27T16:41:18.390Z,28.75
2019-02-27T16:42:41.941Z,32.55
2019-02-27T16:43:52.420Z,29.23
2019-02-27T16:45:04.177Z,30.57
2019-02-27T16:46:17.117Z,31.65
2019-02-27T16:49:10.909Z,30.35
2019-02-27T16:56:13.545Z,27.00
2019-02-27T16:58:38.779Z,32.45
2019-02-27T17:02:38.258Z,30.65
2019-02-27T17:04:00.191Z,28.52
2019-02-27T17:06:52.185Z,33.08
2019-02-27T17:08:29.425Z,29.35
2019-02-27T17:09:35.421Z,27.70
2019-02-27T17:10:51.713Z,32.80
2019-02-27T17:12:07.078Z,32.15
2019-02-27T17:13:19.241Z,29.12
2019-02-27T17:15:35.216Z,30.88
2019-02-27T17:16:45.520Z,31.82
2019-02-27T17:17:54.277Z,31.57
2019-02-27T17:18:59.133Z,30.88
2019-02-27T17:20:14.657Z,28.70
2019-02-27T17:23:09.269Z,33.73
2019-02-27T17:28:34.632Z,26.80
2019-02-27T17:29:48.460Z,27.58
2019-02-27T17:30:55.636Z,33.98
2019-02-27T17:33:40.460Z,30.95
2019-02-27T17:34:58.802Z,27.87
2019-02-27T17:36:31.705Z,31.55
2019-02-27T17:37:21.115Z,34.27
2019-02-27T17:38:28.656Z,32.53
2019-02-27T17:39:45.384Z,33.28
2019-02-27T17:40:55.254Z,32.05
2019-02-27T17:42:05.433Z,33.60
2019-02-27T17:43:14.086Z,31.23
2019-02-27T17:44:19.871Z,30.57
2019-02-27T17:45:30.259Z,33.90
2019-02-27T17:47:47.064Z,35.30
2019-02-27T17:48:59.138Z,33.50
2019-02-27T17:50:11.274Z,31.68
2019-02-27T17:51:15.984Z,31.02
2019-02-27T17:52:33.457Z,31.42
2019-02-27T17:53:44.421Z,34.13
2019-02-27T17:54:53.359Z,36.77
2019-02-27T17:56:05.137Z,31.15
2019-02-27T17:57:14.414Z,34.03
2019-02-27T17:58:22.049Z,35.73
2019-02-27T17:59:34.382Z,38.02
2019-02-27T18:00:51.056Z,36.65
2019-02-27T18:01:58.697Z,29.50
2019-02-27T18:03:12.666Z,32.08
2019-02-27T18:04:18.910Z,36.88
2019-02-27T18:05:25.300Z,32.20
2019-02-27T18:06:34.877Z,37.93
2019-02-27T18:07:42.755Z,33.78
2019-02-27T18:08:51.556Z,41.58
2019-02-27T18:09:58.370Z,34.00
2019-02-27T18:11:15.613Z,40.28
2019-02-27T18:12:35.525Z,37.55
2019-02-27T18:13:47.673Z,30.32
2019-02-27T18:14:54.131Z,33.13
2019-02-27T18:16:04.565Z,39.15
2019-02-27T18:17:11.862Z,39.85
2019-02-27T18:18:20.070Z,38.88
2019-02-27T18:19:30.984Z,38.98
2019-02-27T18:20:40.772Z,39.35
2019-02-27T18:21:46.359Z,39.33
2019-02-27T18:22:53.655Z,38.25
2019-02-27T18:24:08.496Z,39.70
2019-02-27T18:25:18.254Z,41.45
2019-02-27T18:26:25.515Z,41.37
2019-02-27T18:27:37.657Z,39.55
2019-02-27T18:28:43.551Z,35.90
2019-02-27T18:29:49.587Z,34.45
2019-02-27T18:30:58.182Z,40.90
2019-02-27T18:32:12.950Z,38.45
2019-02-27T18:33:20.637Z,41.77
2019-02-27T18:34:27.961Z,42.90
2019-02-27T18:35:35.419Z,44.90
2019-02-27T18:36:51.276Z,38.83
2019-02-27T18:37:57.671Z,42.55
2019-02-27T18:39:09.347Z,41.85
2019-02-27T18:40:20.342Z,38.02
2019-02-27T18:41:25.099Z,43.83
2019-02-27T18:42:36.363Z,36.50
2019-02-27T18:43:42.318Z,43.95
2019-02-27T18:44:48.171Z,41.95
2019-02-27T18:45:54.609Z,41.70
2019-02-27T18:47:12.382Z,41.23
2019-02-27T18:48:20.554Z,40.23
2019-02-27T18:49:31.038Z,45.73
2019-02-27T18:50:37.764Z,46.18
2019-02-27T18:51:42.180Z,44.38
2019-02-27T18:52:59.563Z,52.53
2019-02-27T18:54:11.509Z,45.85
2019-02-27T18:55:21.399Z,49.00
2019-02-27T18:56:30.477Z,49.48
2019-02-27T18:57:39.076Z,47.20
2019-02-27T19:01:29.934Z,49.65
2019-02-27T19:01:54.303Z,52.65
2019-02-27T19:03:07.321Z,47.65
2019-02-27T19:04:45.120Z,55.55
2019-02-27T19:06:00.950Z,49.83
2019-02-27T19:07:02.341Z,49.42
2019-02-27T19:08:11.936Z,51.18
2019-02-27T19:09:21.665Z,54.30
2019-02-27T19:10:31.239Z,52.58
2019-02-27T19:11:37.895Z,50.33
2019-02-27T19:12:48.662Z,52.88
2019-02-27T19:13:54.206Z,55.45
2019-02-27T19:15:00.307Z,53.10
2019-02-27T19:16:11.226Z,59.30
2019-02-27T19:17:20.482Z,61.60
2019-02-27T19:18:28.001Z,56.20
2019-02-27T19:19:40.125Z,58.83
2019-02-27T19:20:48.094Z,61.23
2019-02-27T19:22:07.543Z,59.25
2019-02-27T19:23:17.851Z,60.70
2019-02-27T19:24:32.506Z,56.85
2019-02-27T19:25:37.741Z,55.80
2019-02-27T19:26:44.362Z,62.27
2019-02-27T19:27:50.666Z,64.03
2019-02-27T19:29:04.650Z,64.87
2019-02-27T19:30:14.976Z,62.10
2019-02-27T19:32:24.412Z,61.55
2019-02-27T19:33:32.545Z,63.17
2019-02-27T19:34:37.847Z,64.17
2019-02-27T19:35:56.234Z,64.27
2019-02-27T19:36:52.883Z,66.70
2019-02-27T19:37:57.247Z,64.47
2019-02-27T19:39:02.641Z,62.13
2019-02-27T19:40:13.213Z,71.12
2019-02-27T19:41:21.098Z,71.87
2019-02-27T19:42:25.497Z,66.28
2019-02-27T19:43:31.918Z,66.55
2019-02-27T19:44:37.397Z,69.27
2019-02-27T19:45:46.537Z,68.10
2019-02-27T19:46:53.911Z,69.53
2019-02-27T19:48:10.435Z,72.65
2019-02-27T19:49:14.078Z,73.83
2019-02-27T19:50:20.087Z,73.87
2019-02-27T19:51:25.150Z,72.87
2019-02-27T19:52:33.562Z,70.55
2019-02-27T19:53:42.674Z,75.62
2019-02-27T19:54:52.613Z,70.80
2019-02-27T19:56:01.551Z,77.32
2019-02-27T19:57:10.549Z,71.92
2019-02-27T19:58:30.807Z,74.82
2019-02-27T19:59:41.614Z,73.12
2019-02-27T20:00:48.806Z,70.22
2019-02-27T20:01:53.862Z,76.85
2019-02-27T20:03:01.139Z,78.47
2019-02-27T20:04:09.068Z,80.15
2019-02-27T20:05:16.396Z,77.22
2019-02-27T20:07:32.897Z,76.45
2019-02-27T20:08:44.662Z,69.62
2019-02-27T20:09:47.710Z,79.72
2019-02-27T20:10:53.432Z,79.80
2019-02-27T20:12:04.127Z,80.20
2019-02-27T20:13:15.500Z,87.88
2019-02-27T20:14:25.362Z,83.45
2019-02-27T20:15:32.567Z,77.90
2019-02-27T20:16:45.180Z,79.40
2019-02-27T20:17:53.908Z,83.20
2019-02-27T20:19:00.958Z,81.55
2019-02-27T20:20:29.939Z,83.97
2019-02-27T20:21:45.076Z,80.92
2019-02-27T20:23:01.422Z,84.37
2019-02-27T20:24:14.237Z,84.65
2019-02-27T20:26:51.405Z,80.53
2019-02-27T20:28:17.127Z,87.02
2019-02-27T20:29:39.460Z,85.75
2019-02-27T20:30:44.796Z,90.55
2019-02-27T20:31:51.523Z,92.82
2019-02-27T20:32:59.858Z,95.55
2019-02-27T20:34:14.096Z,86.85
2019-02-27T20:35:29.829Z,89.07
2019-02-27T20:36:44.522Z,87.17
2019-02-27T20:38:02.139Z,88.47
2019-02-27T20:39:14.810Z,90.70
2019-02-27T20:40:33.779Z,90.87
2019-02-27T20:41:44.058Z,94.95